sensor_id;sensor_type;location;lat;lon;timestamp;pressure;altitude;pressure_sealevel;temperature;humidity
7940;BME280;4015;48.888;9.226;2022-07-29T00:02:01;160217.47;;;19.79;89.03
7940;BME280;4015;48.888;9.226;2022-07-29T00:04:26;160211.06;;;19.76;88.85
7940;BME280;4015;48.888;9.226;2022-07-29T00:06:51;160190.53;;;19.68;88.80
7940;BME280;4015;48.888;9.226;2022-07-29T00:09:17;160177.69;;;19.63;89.12
7940;BME280;4015;48.888;9.226;2022-07-29T00:11:42;160176.41;;;19.62;88.98
7940;BME280;4015;48.888;9.226;2022-07-29T00:14:08;160144.25;;;19.50;89.06
7940;BME280;4015;48.888;9.226;2022-07-29T00:16:34;160131.41;;;19.45;89.39
7940;BME280;4015;48.888;9.226;2022-07-29T00:18:59;160126.28;;;19.43;89.17
7940;BME280;4015;48.888;9.226;2022-07-29T00:21:25;160128.84;;;19.44;89.36
7940;BME280;4015;48.888;9.226;2022-07-29T00:23:50;160109.59;;;19.36;89.00
7940;BME280;4015;48.888;9.226;2022-07-29T00:26:16;160085.16;;;19.26;89.55
7940;BME280;4015;48.888;9.226;2022-07-29T00:28:41;160071.03;;;19.21;89.70
7940;BME280;4015;48.888;9.226;2022-07-29T00:31:07;160068.47;;;19.20;89.63
7940;BME280;4015;48.888;9.226;2022-07-29T00:33:33;160049.22;;;19.12;90.00
7940;BME280;4015;48.888;9.226;2022-07-29T00:35:58;160041.50;;;19.09;89.94
7940;BME280;4015;48.888;9.226;2022-07-29T00:38:23;160027.38;;;19.03;90.50
7940;BME280;4015;48.888;9.226;2022-07-29T00:40:49;160032.53;;;19.05;90.08
7940;BME280;4015;48.888;9.226;2022-07-29T00:43:14;160001.72;;;18.93;90.67
7940;BME280;4015;48.888;9.226;2022-07-29T00:45:43;160008.13;;;18.96;90.52
7940;BME280;4015;48.888;9.226;2022-07-29T00:48:08;159997.84;;;18.92;90.68
7940;BME280;4015;48.888;9.226;2022-07-29T00:50:34;159978.59;;;18.84;90.68
7940;BME280;4015;48.888;9.226;2022-07-29T00:53:00;159954.22;;;18.74;91.59
7940;BME280;4015;48.888;9.226;2022-07-29T00:55:26;159932.31;;;18.66;91.86
7940;BME280;4015;48.888;9.226;2022-07-29T00:57:52;159941.38;;;18.69;91.64
7940;BME280;4015;48.888;9.226;2022-07-29T01:00:21;159913.09;;;18.58;92.21
7940;BME280;4015;48.888;9.226;2022-07-29T01:02:47;159909.25;;;18.56;91.74
7940;BME280;4015;48.888;9.226;2022-07-29T01:05:14;159892.56;;;18.50;92.14
7940;BME280;4015;48.888;9.226;2022-07-29T01:07:41;159897.69;;;18.52;92.54
7940;BME280;4015;48.888;9.226;2022-07-29T01:10:09;159895.13;;;18.51;92.36
7940;BME280;4015;48.888;9.226;2022-07-29T01:12:35;159881.00;;;18.45;92.34
7940;BME280;4015;48.888;9.226;2022-07-29T01:15:03;159883.56;;;18.46;92.64
7940;BME280;4015;48.888;9.226;2022-07-29T01:30:38;159910.53;;;18.57;93.58
7940;BME280;4015;48.888;9.226;2022-07-29T01:33:08;159927.22;;;18.64;93.13
7940;BME280;4015;48.888;9.226;2022-07-29T01:35:41;159955.50;;;18.75;92.92
7940;BME280;4015;48.888;9.226;2022-07-29T01:38:12;159964.47;;;18.78;92.64
7940;BME280;4015;48.888;9.226;2022-07-29T01:41:03;159960.63;;;18.77;92.31
7940;BME280;4015;48.888;9.226;2022-07-29T01:43:52;159951.66;;;18.73;92.35
7940;BME280;4015;48.888;9.226;2022-07-29T01:46:31;159941.38;;;18.69;92.03
7940;BME280;4015;48.888;9.226;2022-07-29T01:49:02;159945.22;;;18.71;91.95
7940;BME280;4015;48.888;9.226;2022-07-29T01:51:36;159922.09;;;18.62;92.16
7940;BME280;4015;48.888;9.226;2022-07-29T01:54:09;159911.81;;;18.57;92.54
7940;BME280;4015;48.888;9.226;2022-07-29T01:56:37;159900.25;;;18.53;93.02
7940;BME280;4015;48.888;9.226;2022-07-29T01:59:05;159882.28;;;18.46;92.92
7940;BME280;4015;48.888;9.226;2022-07-29T02:01:32;159873.31;;;18.42;93.45
7940;BME280;4015;48.888;9.226;2022-07-29T02:03:59;159869.44;;;18.41;93.67
7940;BME280;4015;48.888;9.226;2022-07-29T02:06:27;159881.00;;;18.45;92.94
7940;BME280;4015;48.888;9.226;2022-07-29T02:08:55;159869.44;;;18.41;93.40
7940;BME280;4015;48.888;9.226;2022-07-29T02:11:22;159865.59;;;18.39;93.60
7940;BME280;4015;48.888;9.226;2022-07-29T02:13:49;159850.19;;;18.33;93.80
7940;BME280;4015;48.888;9.226;2022-07-29T02:16:21;159847.63;;;18.32;93.80
7940;BME280;4015;48.888;9.226;2022-07-29T02:18:48;159838.63;;;18.28;94.19
7940;BME280;4015;48.888;9.226;2022-07-29T02:21:20;159843.81;;;18.30;94.53
7940;BME280;4015;48.888;9.226;2022-07-29T02:23:47;159851.47;;;18.33;94.84
7940;BME280;4015;48.888;9.226;2022-07-29T02:26:14;159834.78;;;18.27;95.22
7940;BME280;4015;48.888;9.226;2022-07-29T02:28:42;159837.34;;;18.28;94.88
7940;BME280;4015;48.888;9.226;2022-07-29T02:31:08;159836.06;;;18.27;94.91
7940;BME280;4015;48.888;9.226;2022-07-29T02:33:35;159846.34;;;18.31;94.87
7940;BME280;4015;48.888;9.226;2022-07-29T02:36:01;159846.34;;;18.31;94.73
7940;BME280;4015;48.888;9.226;2022-07-29T02:38:27;159846.34;;;18.31;94.75
7940;BME280;4015;48.888;9.226;2022-07-29T02:41:15;159864.31;;;18.39;94.43
7940;BME280;4015;48.888;9.226;2022-07-29T02:43:43;159823.22;;;18.22;94.34
7940;BME280;4015;48.888;9.226;2022-07-29T02:46:13;159798.88;;;18.13;94.71
7940;BME280;4015;48.888;9.226;2022-07-29T02:48:50;159760.34;;;17.97;95.33
7940;BME280;4015;48.888;9.226;2022-07-29T02:51:24;159766.81;;;18.00;95.37
7940;BME280;4015;48.888;9.226;2022-07-29T02:53:53;159773.19;;;18.02;94.85
7940;BME280;4015;48.888;9.226;2022-07-29T02:56:24;159750.13;;;17.93;95.21
7940;BME280;4015;48.888;9.226;2022-07-29T02:58:54;159764.25;;;17.99;95.37
7940;BME280;4015;48.888;9.226;2022-07-29T03:01:23;159771.91;;;18.02;94.94
7940;BME280;4015;48.888;9.226;2022-07-29T03:03:52;159780.91;;;18.05;94.93
7940;BME280;4015;48.888;9.226;2022-07-29T03:06:20;159766.81;;;18.00;95.07
7940;BME280;4015;48.888;9.226;2022-07-29T03:08:46;159766.81;;;18.00;94.94
7940;BME280;4015;48.888;9.226;2022-07-29T03:11:12;159752.69;;;17.94;94.95
7940;BME280;4015;48.888;9.226;2022-07-29T03:13:39;159761.69;;;17.98;94.68
7940;BME280;4015;48.888;9.226;2022-07-29T03:16:05;159786.03;;;18.08;94.39
7940;BME280;4015;48.888;9.226;2022-07-29T03:18:31;159788.59;;;18.09;93.97
7940;BME280;4015;48.888;9.226;2022-07-29T03:20:57;159796.31;;;18.12;93.91
7940;BME280;4015;48.888;9.226;2022-07-29T03:23:23;159766.81;;;18.00;93.37
7940;BME280;4015;48.888;9.226;2022-07-29T03:25:52;159761.69;;;17.98;93.43
7940;BME280;4015;48.888;9.226;2022-07-29T03:28:18;159751.41;;;17.94;93.22
7940;BME280;4015;48.888;9.226;2022-07-29T03:30:44;159761.69;;;17.98;92.83
7940;BME280;4015;48.888;9.226;2022-07-29T03:33:10;159769.34;;;18.01;93.10
7940;BME280;4015;48.888;9.226;2022-07-29T03:35:35;159778.34;;;18.04;92.82
7940;BME280;4015;48.888;9.226;2022-07-29T03:38:00;159788.59;;;18.09;92.76
7940;BME280;4015;48.888;9.226;2022-07-29T03:40:31;159821.94;;;18.22;92.57
7940;BME280;4015;48.888;9.226;2022-07-29T03:42:58;159833.50;;;18.26;92.38
7940;BME280;4015;48.888;9.226;2022-07-29T03:45:26;159821.94;;;18.22;92.53
7940;BME280;4015;48.888;9.226;2022-07-29T03:47:57;159802.72;;;18.14;93.13
7940;BME280;4015;48.888;9.226;2022-07-29T03:50:24;159824.56;;;18.23;92.96
7940;BME280;4015;48.888;9.226;2022-07-29T03:52:50;159827.13;;;18.24;92.67
7940;BME280;4015;48.888;9.226;2022-07-29T03:55:16;159832.22;;;18.26;92.70
7940;BME280;4015;48.888;9.226;2022-07-29T03:57:42;159845.06;;;18.31;92.56
7940;BME280;4015;48.888;9.226;2022-07-29T04:00:10;159837.34;;;18.28;92.65
7940;BME280;4015;48.888;9.226;2022-07-29T04:02:36;159864.31;;;18.39;92.96
7940;BME280;4015;48.888;9.226;2022-07-29T04:05:03;159850.19;;;18.33;92.85
7940;BME280;4015;48.888;9.226;2022-07-29T04:07:28;159851.47;;;18.33;93.38
7940;BME280;4015;48.888;9.226;2022-07-29T04:09:54;159869.44;;;18.41;93.01
7940;BME280;4015;48.888;9.226;2022-07-29T04:12:20;159866.88;;;18.40;93.28
7940;BME280;4015;48.888;9.226;2022-07-29T04:14:46;159866.88;;;18.40;93.13
7940;BME280;4015;48.888;9.226;2022-07-29T04:17:11;159854.03;;;18.34;93.36
7940;BME280;4015;48.888;9.226;2022-07-29T04:19:36;159852.75;;;18.34;93.63
7940;BME280;4015;48.888;9.226;2022-07-29T04:22:02;159861.75;;;18.38;93.55
7940;BME280;4015;48.888;9.226;2022-07-29T04:24:27;159859.19;;;18.37;93.57
7940;BME280;4015;48.888;9.226;2022-07-29T04:26:53;159873.31;;;18.42;92.73
7940;BME280;4015;48.888;9.226;2022-07-29T04:29:18;159881.00;;;18.45;93.05
7940;BME280;4015;48.888;9.226;2022-07-29T04:31:45;159874.59;;;18.43;93.03
7940;BME280;4015;48.888;9.226;2022-07-29T04:34:11;159855.31;;;18.35;93.42
7940;BME280;4015;48.888;9.226;2022-07-29T04:36:36;159877.16;;;18.44;93.69
7940;BME280;4015;48.888;9.226;2022-07-29T04:39:03;159869.44;;;18.41;93.21
7940;BME280;4015;48.888;9.226;2022-07-29T04:41:28;159836.06;;;18.27;93.54
7940;BME280;4015;48.888;9.226;2022-07-29T04:43:54;159851.47;;;18.33;93.26
7940;BME280;4015;48.888;9.226;2022-07-29T04:46:19;159850.19;;;18.33;93.59
7940;BME280;4015;48.888;9.226;2022-07-29T04:48:45;159859.19;;;18.37;93.45
7940;BME280;4015;48.888;9.226;2022-07-29T04:51:11;159874.59;;;18.43;93.15
7940;BME280;4015;48.888;9.226;2022-07-29T04:53:37;159882.28;;;18.46;93.18
7940;BME280;4015;48.888;9.226;2022-07-29T04:56:02;159909.25;;;18.56;93.03
7940;BME280;4015;48.888;9.226;2022-07-29T04:58:28;159924.66;;;18.63;92.91
7940;BME280;4015;48.888;9.226;2022-07-29T05:00:53;159942.66;;;18.70;92.86
7940;BME280;4015;48.888;9.226;2022-07-29T05:03:18;159973.47;;;18.82;92.26
7940;BME280;4015;48.888;9.226;2022-07-29T05:05:44;159990.16;;;18.89;92.11
7940;BME280;4015;48.888;9.226;2022-07-29T05:08:09;160006.84;;;18.95;92.92
7940;BME280;4015;48.888;9.226;2022-07-29T05:10:34;159970.91;;;18.81;93.12
7940;BME280;4015;48.888;9.226;2022-07-29T05:13:04;159964.47;;;18.78;93.64
7940;BME280;4015;48.888;9.226;2022-07-29T05:15:30;159995.28;;;18.91;93.12
7940;BME280;4015;48.888;9.226;2022-07-29T05:17:56;160008.13;;;18.96;92.84
7940;BME280;4015;48.888;9.226;2022-07-29T05:20:21;160010.69;;;18.97;93.21
7940;BME280;4015;48.888;9.226;2022-07-29T05:22:51;160040.22;;;19.08;92.84
7940;BME280;4015;48.888;9.226;2022-07-29T05:25:17;160050.50;;;19.12;93.13
7940;BME280;4015;48.888;9.226;2022-07-29T05:27:42;160098.00;;;19.31;92.29
7940;BME280;4015;48.888;9.226;2022-07-29T05:30:08;160146.81;;;19.51;91.70
7940;BME280;4015;48.888;9.226;2022-07-29T05:32:33;160187.91;;;19.67;90.81
7940;BME280;4015;48.888;9.226;2022-07-29T05:34:58;160254.75;;;19.93;90.03
7940;BME280;4015;48.888;9.226;2022-07-29T05:37:24;160271.44;;;20.00;89.32
7940;BME280;4015;48.888;9.226;2022-07-29T05:39:49;160309.97;;;20.15;89.15
7940;BME280;4015;48.888;9.226;2022-07-29T05:42:15;160387.09;;;20.46;87.74
7940;BME280;4015;48.888;9.226;2022-07-29T05:44:40;160389.66;;;20.47;87.50
7940;BME280;4015;48.888;9.226;2022-07-29T05:47:05;160429.53;;;20.63;87.21
7940;BME280;4015;48.888;9.226;2022-07-29T05:49:32;160516.88;;;20.97;85.79
7940;BME280;4015;48.888;9.226;2022-07-29T05:51:57;160511.75;;;20.95;86.15
7940;BME280;4015;48.888;9.226;2022-07-29T05:54:23;160447.50;;;20.70;86.82
7940;BME280;4015;48.888;9.226;2022-07-29T05:56:48;160430.81;;;20.63;87.46
7940;BME280;4015;48.888;9.226;2022-07-29T05:59:14;160504.03;;;20.92;87.01
7940;BME280;4015;48.888;9.226;2022-07-29T06:01:39;160540.03;;;21.07;86.63
7940;BME280;4015;48.888;9.226;2022-07-29T06:04:05;160579.84;;;21.22;85.24
7940;BME280;4015;48.888;9.226;2022-07-29T06:06:32;160651.91;;;21.51;84.59
7940;BME280;4015;48.888;9.226;2022-07-29T06:08:57;160729.06;;;21.81;83.59
7940;BME280;4015;48.888;9.226;2022-07-29T06:11:22;160817.81;;;22.17;81.11
7940;BME280;4015;48.888;9.226;2022-07-29T06:13:48;160871.84;;;22.38;80.29
7940;BME280;4015;48.888;9.226;2022-07-29T06:16:13;160940.00;;;22.65;79.43
7940;BME280;4015;48.888;9.226;2022-07-29T06:18:39;160979.88;;;22.81;78.43
7940;BME280;4015;48.888;9.226;2022-07-29T06:21:07;160969.59;;;22.77;77.06
7940;BME280;4015;48.888;9.226;2022-07-29T06:23:33;160988.88;;;22.84;77.13
7940;BME280;4015;48.888;9.226;2022-07-29T06:25:59;161039.09;;;23.04;76.72
7940;BME280;4015;48.888;9.226;2022-07-29T06:28:25;161001.81;;;22.90;76.40
7940;BME280;4015;48.888;9.226;2022-07-29T06:30:51;161073.84;;;23.18;75.67
7940;BME280;4015;48.888;9.226;2022-07-29T06:33:17;161125.34;;;23.38;75.05
7940;BME280;4015;48.888;9.226;2022-07-29T06:35:43;161060.97;;;23.13;74.69
7940;BME280;4015;48.888;9.226;2022-07-29T06:38:10;161091.84;;;23.25;75.74
7940;BME280;4015;48.888;9.226;2022-07-29T06:40:36;161080.28;;;23.21;75.50
7940;BME280;4015;48.888;9.226;2022-07-29T06:43:20;161269.53;;;23.95;74.67
7940;BME280;4015;48.888;9.226;2022-07-29T06:45:46;161154.91;;;23.50;73.91
7940;BME280;4015;48.888;9.226;2022-07-29T06:48:11;161079.00;;;23.20;75.33
7940;BME280;4015;48.888;9.226;2022-07-29T06:50:37;161059.69;;;23.12;75.73
7940;BME280;4015;48.888;9.226;2022-07-29T06:53:02;161031.41;;;23.01;76.48
7940;BME280;4015;48.888;9.226;2022-07-29T06:55:28;161040.38;;;23.05;75.51
7940;BME280;4015;48.888;9.226;2022-07-29T06:57:53;161055.84;;;23.11;75.42
7940;BME280;4015;48.888;9.226;2022-07-29T07:00:19;161143.34;;;23.46;75.57
7940;BME280;4015;48.888;9.226;2022-07-29T07:02:45;161323.56;;;24.17;73.53
7940;BME280;4015;48.888;9.226;2022-07-29T07:05:10;161539.97;;;25.02;69.62
7940;BME280;4015;48.888;9.226;2022-07-29T07:07:35;161755.16;;;25.88;67.78
7940;BME280;4015;48.888;9.226;2022-07-29T07:10:01;162021.97;;;26.93;64.94
7940;BME280;4015;48.888;9.226;2022-07-29T07:12:26;162332.78;;;28.16;60.08
7940;BME280;4015;48.888;9.226;2022-07-29T07:14:52;162383.16;;;28.36;59.39
7940;BME280;4015;48.888;9.226;2022-07-29T07:17:17;162513.44;;;28.87;59.04
7940;BME280;4015;48.888;9.226;2022-07-29T07:19:42;162433.47;;;28.56;59.08
7940;BME280;4015;48.888;9.226;2022-07-29T07:22:08;162291.53;;;28.00;59.91
7940;BME280;4015;48.888;9.226;2022-07-29T07:24:33;162276.06;;;27.93;60.32
7940;BME280;4015;48.888;9.226;2022-07-29T07:26:58;162313.44;;;28.08;59.83
7940;BME280;4015;48.888;9.226;2022-07-29T07:29:24;162514.75;;;28.88;58.63
7940;BME280;4015;48.888;9.226;2022-07-29T07:31:49;162553.47;;;29.03;56.91
7940;BME280;4015;48.888;9.226;2022-07-29T07:34:14;162580.59;;;29.14;56.23
7940;BME280;4015;48.888;9.226;2022-07-29T07:36:40;162588.34;;;29.17;56.91
7940;BME280;4015;48.888;9.226;2022-07-29T07:39:05;162464.44;;;28.68;57.37
7940;BME280;4015;48.888;9.226;2022-07-29T07:41:31;162248.97;;;27.83;59.60
7940;BME280;4015;48.888;9.226;2022-07-29T07:43:56;162452.81;;;28.63;57.89
7940;BME280;4015;48.888;9.226;2022-07-29T07:46:21;162820.69;;;30.08;55.36
7940;BME280;4015;48.888;9.226;2022-07-29T07:48:47;162962.75;;;30.65;53.05
7940;BME280;4015;48.888;9.226;2022-07-29T07:51:12;163168.16;;;31.46;51.97
7940;BME280;4015;48.888;9.226;2022-07-29T07:53:38;163303.81;;;31.99;50.69
7940;BME280;4015;48.888;9.226;2022-07-29T07:56:03;163514.53;;;32.82;49.49
7940;BME280;4015;48.888;9.226;2022-07-29T07:58:32;163831.38;;;34.07;47.42
7940;BME280;4015;48.888;9.226;2022-07-29T08:00:59;163730.44;;;33.67;46.96
7940;BME280;4015;48.888;9.226;2022-07-29T08:03:25;163817.13;;;34.01;46.32
7940;BME280;4015;48.888;9.226;2022-07-29T08:05:50;163831.38;;;34.07;46.43
7940;BME280;4015;48.888;9.226;2022-07-29T08:08:17;163552.03;;;32.97;47.26
7940;BME280;4015;48.888;9.226;2022-07-29T08:10:42;163698.13;;;33.54;46.37
7940;BME280;4015;48.888;9.226;2022-07-29T08:13:37;163686.47;;;33.50;45.69
7940;BME280;4015;48.888;9.226;2022-07-29T08:16:03;163721.41;;;33.64;46.32
7940;BME280;4015;48.888;9.226;2022-07-29T08:18:39;164096.53;;;35.11;44.16
7940;BME280;4015;48.888;9.226;2022-07-29T08:21:04;164258.28;;;35.75;41.73
7940;BME280;4015;48.888;9.226;2022-07-29T08:23:30;163712.34;;;33.60;45.90
7940;BME280;4015;48.888;9.226;2022-07-29T08:26:04;163488.66;;;32.72;46.83
7940;BME280;4015;48.888;9.226;2022-07-29T08:28:29;163598.56;;;33.15;46.64
7940;BME280;4015;48.888;9.226;2022-07-29T08:30:55;163828.72;;;34.06;44.36
7940;BME280;4015;48.888;9.226;2022-07-29T08:33:21;164149.53;;;35.32;42.87
7940;BME280;4015;48.888;9.226;2022-07-29T08:35:46;164158.63;;;35.36;42.15
7940;BME280;4015;48.888;9.226;2022-07-29T08:38:12;164183.28;;;35.46;43.43
7940;BME280;4015;48.888;9.226;2022-07-29T08:40:37;164302.31;;;35.92;40.84
7940;BME280;4015;48.888;9.226;2022-07-29T08:43:07;164390.34;;;36.27;41.35
7940;BME280;4015;48.888;9.226;2022-07-29T08:48:08;164539.19;;;36.86;40.38
7940;BME280;4015;48.888;9.226;2022-07-29T08:50:35;164682.97;;;37.42;39.78
7940;BME280;4015;48.888;9.226;2022-07-29T08:53:02;164607.81;;;37.13;38.61
7940;BME280;4015;48.888;9.226;2022-07-29T08:55:28;164813.75;;;37.94;38.05
7940;BME280;4015;48.888;9.226;2022-07-29T08:57:54;164870.75;;;38.16;37.71
7940;BME280;4015;48.888;9.226;2022-07-29T09:00:21;164716.59;;;37.56;38.79
7940;BME280;4015;48.888;9.226;2022-07-29T09:02:51;164829.28;;;38.00;37.71
7940;BME280;4015;48.888;9.226;2022-07-29T09:05:23;164593.56;;;37.07;38.19
7940;BME280;4015;48.888;9.226;2022-07-29T09:07:50;164892.72;;;38.25;38.48
7940;BME280;4015;48.888;9.226;2022-07-29T09:10:15;165065.06;;;38.93;37.25
7940;BME280;4015;48.888;9.226;2022-07-29T09:12:41;164795.63;;;37.87;36.93
7940;BME280;4015;48.888;9.226;2022-07-29T09:15:07;165005.44;;;38.69;35.59
7940;BME280;4015;48.888;9.226;2022-07-29T09:17:43;165107.78;;;39.09;35.11
7940;BME280;4015;48.888;9.226;2022-07-29T09:20:14;164597.44;;;37.09;36.38
7940;BME280;4015;48.888;9.226;2022-07-29T09:22:40;164974.34;;;38.57;35.64
7940;BME280;4015;48.888;9.226;2022-07-29T09:25:06;165376.09;;;40.15;34.16
7940;BME280;4015;48.888;9.226;2022-07-29T09:27:31;165595.19;;;41.01;33.85
7940;BME280;4015;48.888;9.226;2022-07-29T09:30:00;165475.91;;;40.54;33.90
7940;BME280;4015;48.888;9.226;2022-07-29T09:32:27;165220.53;;;39.54;34.37
7940;BME280;4015;48.888;9.226;2022-07-29T09:37:41;165159.69;;;39.30;34.18
7940;BME280;4015;48.888;9.226;2022-07-29T09:40:15;165123.38;;;39.16;34.49
7940;BME280;4015;48.888;9.226;2022-07-29T09:42:41;165040.44;;;38.83;35.87
7940;BME280;4015;48.888;9.226;2022-07-29T09:45:07;165146.72;;;39.25;35.56
7940;BME280;4015;48.888;9.226;2022-07-29T09:47:46;165216.66;;;39.52;34.67
7940;BME280;4015;48.888;9.226;2022-07-29T09:50:17;165229.59;;;39.57;34.56
7940;BME280;4015;48.888;9.226;2022-07-29T09:52:50;165070.25;;;38.95;34.49
7940;BME280;4015;48.888;9.226;2022-07-29T09:55:16;165017.16;;;38.74;35.77
7940;BME280;4015;48.888;9.226;2022-07-29T09:57:42;165017.16;;;38.74;35.17
7940;BME280;4015;48.888;9.226;2022-07-29T10:00:17;164936.81;;;38.42;36.01
7940;BME280;4015;48.888;9.226;2022-07-29T10:02:45;164927.72;;;38.39;36.17
7940;BME280;4015;48.888;9.226;2022-07-29T10:05:24;165044.31;;;38.84;33.89
7940;BME280;4015;48.888;9.226;2022-07-29T10:07:52;165256.88;;;39.68;32.17
7940;BME280;4015;48.888;9.226;2022-07-29T10:10:31;165313.84;;;39.90;32.68
7940;BME280;4015;48.888;9.226;2022-07-29T10:13:08;165221.84;;;39.54;32.61
7940;BME280;4015;48.888;9.226;2022-07-29T10:15:36;164398.06;;;36.30;36.92
7940;BME280;4015;48.888;9.226;2022-07-29T10:18:04;163908.91;;;34.38;40.21
7940;BME280;4015;48.888;9.226;2022-07-29T10:20:30;163611.50;;;33.20;42.90
7940;BME280;4015;48.888;9.226;2022-07-29T10:22:55;163434.41;;;32.51;43.49
7940;BME280;4015;48.888;9.226;2022-07-29T10:25:22;163284.47;;;31.91;43.42
7940;BME280;4015;48.888;9.226;2022-07-29T10:27:49;163234.03;;;31.72;45.09
7940;BME280;4015;48.888;9.226;2022-07-29T10:30:16;163249.53;;;31.78;44.91
7940;BME280;4015;48.888;9.226;2022-07-29T10:35:54;163031.22;;;30.92;46.01
7940;BME280;4015;48.888;9.226;2022-07-29T10:39:08;162798.75;;;30.00;48.04
7940;BME280;4015;48.888;9.226;2022-07-29T10:42:04;162643.81;;;29.39;49.02
7940;BME280;4015;48.888;9.226;2022-07-29T10:44:32;162544.47;;;28.99;50.47
7940;BME280;4015;48.888;9.226;2022-07-29T10:46:58;162512.16;;;28.87;49.80
7940;BME280;4015;48.888;9.226;2022-07-29T10:49:25;162406.38;;;28.45;50.06
7940;BME280;4015;48.888;9.226;2022-07-29T10:59:37;162149.63;;;27.43;53.35
7940;BME280;4015;48.888;9.226;2022-07-29T11:05:05;162175.44;;;27.54;53.07
7940;BME280;4015;48.888;9.226;2022-07-29T11:07:32;162114.84;;;27.30;55.47
7940;BME280;4015;48.888;9.226;2022-07-29T11:15:03;162099.38;;;27.24;54.26
7940;BME280;4015;48.888;9.226;2022-07-29T11:22:56;162121.28;;;27.32;56.24
7940;BME280;4015;48.888;9.226;2022-07-29T11:25:22;162131.59;;;27.36;54.77
7940;BME280;4015;48.888;9.226;2022-07-29T11:27:47;162140.59;;;27.40;55.40
7940;BME280;4015;48.888;9.226;2022-07-29T11:30:13;162129.03;;;27.35;57.00
7940;BME280;4015;48.888;9.226;2022-07-29T11:32:41;162144.50;;;27.41;57.09
7940;BME280;4015;48.888;9.226;2022-07-29T11:37:43;162260.59;;;27.87;54.11
7940;BME280;4015;48.888;9.226;2022-07-29T11:40:11;162418.00;;;28.49;52.59
7940;BME280;4015;48.888;9.226;2022-07-29T11:45:22;162532.84;;;28.95;52.00
7940;BME280;4015;48.888;9.226;2022-07-29T11:47:51;162712.25;;;29.66;51.98
7940;BME280;4015;48.888;9.226;2022-07-29T11:50:32;162745.78;;;29.79;53.92
7940;BME280;4015;48.888;9.226;2022-07-29T11:52:59;162642.53;;;29.38;53.97
7940;BME280;4015;48.888;9.226;2022-07-29T11:55:25;162766.47;;;29.87;54.11
7940;BME280;4015;48.888;9.226;2022-07-29T11:57:58;162880.13;;;30.32;54.20
7940;BME280;4015;48.888;9.226;2022-07-29T12:00:38;162781.97;;;29.93;56.12
7940;BME280;4015;48.888;9.226;2022-07-29T12:03:09;162712.25;;;29.66;57.69
7940;BME280;4015;48.888;9.226;2022-07-29T12:05:44;162938.22;;;30.55;56.60
7940;BME280;4015;48.888;9.226;2022-07-29T12:10:36;163024.78;;;30.89;53.31
7940;BME280;4015;48.888;9.226;2022-07-29T12:13:01;163040.28;;;30.95;53.00
7940;BME280;4015;48.888;9.226;2022-07-29T12:15:27;163017.00;;;30.86;52.31
7940;BME280;4015;48.888;9.226;2022-07-29T12:17:52;162965.31;;;30.66;52.31
7940;BME280;4015;48.888;9.226;2022-07-29T12:20:30;162960.16;;;30.63;52.22
7940;BME280;4015;48.888;9.226;2022-07-29T12:22:56;163013.13;;;30.84;51.33
7940;BME280;4015;48.888;9.226;2022-07-29T12:25:23;163028.63;;;30.91;50.56
7940;BME280;4015;48.888;9.226;2022-07-29T12:28:02;163053.19;;;31.00;50.96
7940;BME280;4015;48.888;9.226;2022-07-29T12:30:54;163014.41;;;30.85;51.99
7940;BME280;4015;48.888;9.226;2022-07-29T12:33:22;162967.88;;;30.67;50.98
7940;BME280;4015;48.888;9.226;2022-07-29T12:35:54;162907.25;;;30.43;49.81
7940;BME280;4015;48.888;9.226;2022-07-29T12:38:21;162790.97;;;29.97;50.05
7940;BME280;4015;48.888;9.226;2022-07-29T12:40:48;162638.66;;;29.37;52.22
7940;BME280;4015;48.888;9.226;2022-07-29T12:43:21;162538.00;;;28.97;50.60
7940;BME280;4015;48.888;9.226;2022-07-29T12:45:49;162596.06;;;29.20;49.59
7940;BME280;4015;48.888;9.226;2022-07-29T12:48:15;162792.25;;;29.97;49.51
7940;BME280;4015;48.888;9.226;2022-07-29T12:50:55;162943.38;;;30.57;48.66
7940;BME280;4015;48.888;9.226;2022-07-29T12:53:21;162865.91;;;30.26;47.07
7940;BME280;4015;48.888;9.226;2022-07-29T12:55:49;162823.25;;;30.09;46.80
7940;BME280;4015;48.888;9.226;2022-07-29T12:58:39;162580.59;;;29.14;48.53
7940;BME280;4015;48.888;9.226;2022-07-29T13:01:10;162372.84;;;28.32;50.66
7940;BME280;4015;48.888;9.226;2022-07-29T13:03:50;162305.72;;;28.05;51.04
7940;BME280;4015;48.888;9.226;2022-07-29T13:09:04;162153.50;;;27.45;52.88
7940;BME280;4015;48.888;9.226;2022-07-29T13:11:31;162101.94;;;27.25;55.16
7940;BME280;4015;48.888;9.226;2022-07-29T13:13:57;162105.78;;;27.26;54.12
7940;BME280;4015;48.888;9.226;2022-07-29T13:16:22;162105.78;;;27.26;54.94
7940;BME280;4015;48.888;9.226;2022-07-29T13:18:48;162034.88;;;26.98;55.72
7940;BME280;4015;48.888;9.226;2022-07-29T13:21:15;162006.50;;;26.87;56.19
7940;BME280;4015;48.888;9.226;2022-07-29T13:23:41;161944.63;;;26.62;57.36
7940;BME280;4015;48.888;9.226;2022-07-29T13:26:08;161880.13;;;26.37;57.96
7940;BME280;4015;48.888;9.226;2022-07-29T13:28:33;161820.84;;;26.14;58.73
7940;BME280;4015;48.888;9.226;2022-07-29T13:30:59;161795.13;;;26.03;58.47
7940;BME280;4015;48.888;9.226;2022-07-29T13:33:25;161765.47;;;25.92;59.67
7940;BME280;4015;48.888;9.226;2022-07-29T13:35:50;161719.09;;;25.73;60.14
7940;BME280;4015;48.888;9.226;2022-07-29T13:38:16;161654.63;;;25.48;61.23
7940;BME280;4015;48.888;9.226;2022-07-29T13:40:42;161658.47;;;25.49;61.95
7940;BME280;4015;48.888;9.226;2022-07-29T13:43:11;161668.81;;;25.53;62.42
7940;BME280;4015;48.888;9.226;2022-07-29T13:45:36;161716.47;;;25.72;62.38
7940;BME280;4015;48.888;9.226;2022-07-29T13:48:02;161762.91;;;25.91;61.70
7940;BME280;4015;48.888;9.226;2022-07-29T13:50:27;161925.31;;;26.55;61.19
7940;BME280;4015;48.888;9.226;2022-07-29T13:52:53;162080.03;;;27.16;59.17
7940;BME280;4015;48.888;9.226;2022-07-29T13:55:18;162221.91;;;27.72;58.09
7940;BME280;4015;48.888;9.226;2022-07-29T13:57:43;162427.00;;;28.53;57.15
7940;BME280;4015;48.888;9.226;2022-07-29T14:00:09;162594.78;;;29.19;56.57
7940;BME280;4015;48.888;9.226;2022-07-29T14:02:35;162594.78;;;29.19;55.40
7940;BME280;4015;48.888;9.226;2022-07-29T14:05:02;162574.16;;;29.11;56.66
7940;BME280;4015;48.888;9.226;2022-07-29T14:07:28;162567.66;;;29.09;56.50